KMER/MER METAR and TAF weather

Enter ICAO airport designator
Station Type Date Time Source
KMER METAR 2019/06/18 17:45 UTC NOAA

KMER 181745Z 33007KT 10SM SKC 31/16 A2988


Station Type Date Time Source
KMER Decoded METAR 2019/06/18 17:45 UTC NOAA

Merced / Castle Air Force Base, CA, United States (KMER) 37-22N 120-34W 60M
Jun 18, 2019 - 01:45 PM EDT / 2019.06.18 1745 UTC
Wind: from the NNW (330 degrees) at 8 MPH (7 KT):0
Visibility: 10 mile(s):0
Sky conditions: clear
Temperature: 87 F (31 C)
Dew Point: 60 F (16 C)
Relative Humidity: 40%
Pressure (altimeter): 29.88 in. Hg (1011 hPa)
ob: KMER 181745Z 33007KT 10SM SKC 31/16 A2988
cycle: 18

Station Type Date Time Source
KMER TAF 2019/06/18 18:39 UTC NOAA

TAF KMER 181737Z 1818/1918 34007KT P6SM FEW200

Example: see airport list